Wetterdaten: Woche 05.06.06 - 11.06.06 (KW23)
Datum Zeit Temperatur Luftfeuchte Luftdruck Niederschlag Wind Richtung Sonne Solar Taupunkt Windchill
05.06.2006 00:00 11.6 C 68 % 1023.2 hPa 0.0 l/m 3.2 km/h (1 Bft) O-SO 0.00 h 0 W/m 5.9 C 11.6 C
05.06.2006 01:00 10.6 C 76 % 1023.3 hPa 0.0 l/m 0.0 km/h (0 Bft) N 0.00 h 0 W/m 6.5 C 10.6 C
05.06.2006 02:00 9.5 C 81 % 1023.5 hPa 0.0 l/m 0.3 km/h (0 Bft) O-SO 0.00 h 0 W/m 6.4 C 9.5 C
05.06.2006 03:00 8.6 C 87 % 1023.3 hPa 0.0 l/m 0.0 km/h (0 Bft) N 0.00 h 0 W/m 6.5 C 8.6 C
05.06.2006 04:00 7.8 C 91 % 1022.7 hPa 0.0 l/m 0.0 km/h (0 Bft) N 0.00 h 0 W/m 6.5 C 7.8 C
05.06.2006 05:00 7.3 C 94 % 1022.7 hPa 0.0 l/m 0.1 km/h (0 Bft) O-SO 0.00 h 7 W/m 6.3 C 7.3 C
05.06.2006 06:00 8.0 C 92 % 1022.6 hPa 0.0 l/m 0.0 km/h (0 Bft) N 0.00 h 16 W/m 6.7 C 8.0 C
05.06.2006 07:00 8.5 C 86 % 1022.6 hPa 0.0 l/m 0.0 km/h (0 Bft) N 0.00 h 52 W/m 6.4 C 8.5 C
05.06.2006 08:00 9.5 C 81 % 1023.5 hPa 0.0 l/m 0.1 km/h (0 Bft) N 0.00 h 164 W/m 6.4 C 9.5 C
05.06.2006 09:00 11.3 C 72 % 1023.2 hPa 0.0 l/m 0.1 km/h (0 Bft) W-NW 0.90 h 369 W/m 6.4 C 11.3 C
05.06.2006 10:00 13.3 C 65 % 1022.9 hPa 0.0 l/m 0.0 km/h (0 Bft) N 1.00 h 444 W/m 6.8 C 13.3 C
05.06.2006 11:00 15.4 C 54 % 1022.7 hPa 0.0 l/m 0.8 km/h (0 Bft) O-SO 0.70 h 493 W/m 6.1 C 15.4 C
05.06.2006 12:00 15.7 C 49 % 1022.6 hPa 0.0 l/m 3.0 km/h (1 Bft) W-NW 0.37 h 406 W/m 5.0 C 15.7 C
05.06.2006 13:00 15.7 C 51 % 1021.8 hPa 0.0 l/m 7.9 km/h (2 Bft) NW 0.23 h 440 W/m 5.5 C 15.7 C
05.06.2006 14:00 16.4 C 48 % 1021.5 hPa 0.0 l/m 5.0 km/h (1 Bft) NW 0.53 h 531 W/m 5.3 C 16.4 C
05.06.2006 15:00 17.0 C 46 % 1021.2 hPa 0.0 l/m 0.6 km/h (0 Bft) NW 0.23 h 322 W/m 5.3 C 17.0 C
05.06.2006 16:00 16.9 C 48 % 1020.5 hPa 0.0 l/m 3.1 km/h (1 Bft) W-NW 0.10 h 274 W/m 5.7 C 16.9 C
05.06.2006 17:00 19.0 C 42 % 1020.1 hPa 0.0 l/m 3.9 km/h (1 Bft) W-NW 0.57 h 427 W/m 5.6 C 19.0 C
05.06.2006 18:00 17.5 C 46 % 1020.0 hPa 0.0 l/m 3.8 km/h (1 Bft) W-NW 0.17 h 166 W/m 5.7 C 17.5 C
05.06.2006 19:00 16.4 C 49 % 1020.1 hPa 0.0 l/m 10.5 km/h (2 Bft) W-NW 0.00 h 51 W/m 5.8 C 16.4 C
05.06.2006 20:00 15.8 C 54 % 1020.5 hPa 0.0 l/m 1.5 km/h (1 Bft) W-NW 0.00 h 29 W/m 6.4 C 15.8 C
05.06.2006 21:00 13.7 C 67 % 1020.8 hPa 0.0 l/m 0.0 km/h (0 Bft) N 0.03 h 9 W/m 7.7 C 13.7 C
05.06.2006 22:00 12.9 C 70 % 1021.8 hPa 0.0 l/m 2.9 km/h (1 Bft) O-SO 0.00 h 0 W/m 7.6 C 12.9 C
05.06.2006 23:00 12.5 C 74 % 1022.0 hPa 0.0 l/m 3.3 km/h (1 Bft) O-SO 0.00 h 0 W/m 8.0 C 12.5 C
06.06.2006 00:00 12.1 C 80 % 1022.2 hPa 0.0 l/m 0.0 km/h (0 Bft) N 0.00 h 0 W/m 8.7 C 12.1 C
06.06.2006 01:00 11.1 C 89 % 1022.9 hPa 0.3 l/m 3.3 km/h (1 Bft) O-SO 0.00 h 0 W/m 9.4 C 11.1 C
06.06.2006 02:00 10.5 C 94 % 1022.6 hPa 0.0 l/m 0.2 km/h (0 Bft) S 0.00 h 0 W/m 9.5 C 10.5 C
06.06.2006 03:00 10.4 C 92 % 1022.4 hPa 0.0 l/m 1.8 km/h (1 Bft) O-SO 0.00 h 0 W/m 9.2 C 10.4 C
06.06.2006 04:00 10.2 C 95 % 1022.3 hPa 0.0 l/m 0.2 km/h (0 Bft) N 0.00 h 0 W/m 9.4 C 10.2 C
06.06.2006 05:00 9.4 C 99 % 1023.1 hPa 0.0 l/m 0.0 km/h (0 Bft) N 0.00 h 10 W/m 9.2 C 9.4 C
06.06.2006 06:00 9.5 C 96 % 1023.5 hPa 0.0 l/m 0.1 km/h (0 Bft) N 0.10 h 54 W/m 8.8 C 9.5 C
06.06.2006 07:00 10.2 C 89 % 1023.8 hPa 0.0 l/m 0.0 km/h (0 Bft) N 0.80 h 227 W/m 8.5 C 10.2 C
06.06.2006 08:00 11.5 C 78 % 1024.2 hPa 0.0 l/m 0.2 km/h (0 Bft) N 1.00 h 422 W/m 7.9 C 11.5 C
06.06.2006 09:00 13.6 C 64 % 1023.9 hPa 0.0 l/m 1.6 km/h (1 Bft) O-NO 1.00 h 528 W/m 6.9 C 13.6 C
06.06.2006 10:00 15.6 C 49 % 1023.7 hPa 0.0 l/m 8.1 km/h (2 Bft) O-SO 1.00 h 688 W/m 4.7 C 15.6 C
06.06.2006 11:00 16.3 C 47 % 1023.6 hPa 0.0 l/m 4.6 km/h (1 Bft) O-SO 0.63 h 573 W/m 5.0 C 16.3 C
06.06.2006 12:00 16.2 C 48 % 1023.6 hPa 0.0 l/m 1.7 km/h (1 Bft) O-SO 0.13 h 378 W/m 5.2 C 16.2 C
06.06.2006 13:00 16.4 C 48 % 1023.6 hPa 0.0 l/m 4.8 km/h (1 Bft) O-SO 0.10 h 339 W/m 5.4 C 16.4 C
06.06.2006 14:00 16.4 C 45 % 1023.6 hPa 0.0 l/m 1.0 km/h (0 Bft) O-NO 0.03 h 287 W/m 4.4 C 16.4 C
06.06.2006 15:00 16.2 C 45 % 1023.6 hPa 0.0 l/m 0.8 km/h (0 Bft) O-SO 0.00 h 201 W/m 4.3 C 16.2 C
06.06.2006 16:00 16.8 C 43 % 1023.5 hPa 0.0 l/m 0.2 km/h (0 Bft) O 0.17 h 324 W/m 4.3 C 16.8 C
06.06.2006 17:00 18.4 C 40 % 1023.3 hPa 0.0 l/m 1.5 km/h (1 Bft) O 0.57 h 461 W/m 4.6 C 18.4 C
06.06.2006 18:00 17.0 C 43 % 1023.5 hPa 0.0 l/m 2.7 km/h (1 Bft) N-NO 0.43 h 216 W/m 4.4 C 17.0 C
06.06.2006 19:00 15.7 C 44 % 1024.7 hPa 0.0 l/m 2.3 km/h (1 Bft) O 0.00 h 76 W/m 3.6 C 15.7 C
06.06.2006 20:00 14.7 C 48 % 1024.8 hPa 0.0 l/m 0.1 km/h (0 Bft) N 0.17 h 41 W/m 3.7 C 14.7 C
06.06.2006 21:00 12.8 C 54 % 1025.6 hPa 0.0 l/m 2.4 km/h (1 Bft) O-SO 0.03 h 10 W/m 3.7 C 12.8 C
06.06.2006 22:00 10.4 C 69 % 1026.5 hPa 0.0 l/m 0.9 km/h (0 Bft) SO 0.00 h 0 W/m 4.8 C 10.4 C
06.06.2006 23:00 9.1 C 76 % 1026.8 hPa 0.0 l/m 0.5 km/h (0 Bft) O-SO 0.00 h 0 W/m 5.1 C 9.1 C
07.06.2006 00:00 8.3 C 80 % 1027.8 hPa 0.0 l/m 0.4 km/h (0 Bft) SO 0.00 h 0 W/m 4.9 C 8.3 C
07.06.2006 01:00 7.5 C 85 % 1027.7 hPa 0.0 l/m 0.0 km/h (0 Bft) N 0.00 h 0 W/m 5.2 C 7.5 C
07.06.2006 02:00 6.7 C 88 % 1027.2 hPa 0.0 l/m 0.0 km/h (0 Bft) N 0.00 h 0 W/m 4.8 C 6.7 C
07.06.2006 03:00 5.8 C 94 % 1027.1 hPa 0.0 l/m 0.0 km/h (0 Bft) N 0.00 h 0 W/m 4.9 C 5.8 C
07.06.2006 04:00 5.3 C 96 % 1027.2 hPa 0.0 l/m 0.0 km/h (0 Bft) N 0.00 h 0 W/m 4.8 C 5.3 C
07.06.2006 05:00 4.8 C 98 % 1027.2 hPa 0.0 l/m 0.0 km/h (0 Bft) N 0.07 h 13 W/m 4.6 C 4.8 C
07.06.2006 06:00 4.9 C 96 % 1027.7 hPa 0.0 l/m 0.0 km/h (0 Bft) N 0.13 h 59 W/m 4.4 C 4.9 C
07.06.2006 07:00 6.2 C 91 % 1028.1 hPa 0.0 l/m 0.0 km/h (0 Bft) N 0.93 h 255 W/m 4.9 C 6.2 C
07.06.2006 08:00 8.9 C 76 % 1027.7 hPa 0.0 l/m 0.8 km/h (0 Bft) W-NW 1.00 h 422 W/m 4.9 C 8.9 C
07.06.2006 09:00 12.1 C 62 % 1027.3 hPa 0.0 l/m 3.2 km/h (1 Bft) W-NW 1.00 h 558 W/m 5.0 C 12.1 C
07.06.2006 10:00 14.6 C 51 % 1026.7 hPa 0.0 l/m 5.6 km/h (1 Bft) N-NO 1.00 h 674 W/m 4.6 C 14.6 C
07.06.2006 11:00 16.1 C 45 % 1025.7 hPa 0.0 l/m 6.6 km/h (2 Bft) NO 1.00 h 767 W/m 4.3 C 16.1 C
07.06.2006 12:00 17.5 C 42 % 1025.5 hPa 0.0 l/m 6.9 km/h (2 Bft) NO 1.00 h 823 W/m 4.4 C 17.5 C
07.06.2006 13:00 18.4 C 39 % 1025.4 hPa 0.0 l/m 5.7 km/h (1 Bft) O-NO 1.00 h 844 W/m 4.0 C 18.4 C
07.06.2006 14:00 19.3 C 36 % 1024.5 hPa 0.0 l/m 4.9 km/h (1 Bft) O-SO 0.87 h 751 W/m 3.9 C 19.3 C
07.06.2006 15:00 20.0 C 35 % 1024.1 hPa 0.0 l/m 3.9 km/h (1 Bft) O 0.73 h 614 W/m 3.9 C 20.0 C
07.06.2006 16:00 20.5 C 30 % 1024.1 hPa 0.0 l/m 4.1 km/h (1 Bft) O-NO 1.00 h 658 W/m 2.3 C 20.5 C
07.06.2006 17:00 20.5 C 29 % 1023.5 hPa 0.0 l/m 4.2 km/h (1 Bft) O 0.90 h 476 W/m 1.9 C 20.5 C
07.06.2006 18:00 20.3 C 28 % 1023.1 hPa 0.0 l/m 5.3 km/h (1 Bft) O-SO 1.00 h 374 W/m 1.3 C 20.3 C
07.06.2006 19:00 19.4 C 31 % 1023.2 hPa 0.0 l/m 7.2 km/h (2 Bft) O-SO 1.00 h 219 W/m 1.7 C 19.4 C
07.06.2006 20:00 17.3 C 40 % 1023.5 hPa 0.0 l/m 0.0 km/h (0 Bft) N 0.47 h 55 W/m 3.3 C 17.3 C
07.06.2006 21:00 14.5 C 51 % 1024.0 hPa 0.0 l/m 0.1 km/h (0 Bft) N 0.17 h 15 W/m 4.5 C 14.5 C
07.06.2006 22:00 12.4 C 64 % 1025.1 hPa 0.0 l/m 0.0 km/h (0 Bft) N 0.00 h 0 W/m 5.8 C 12.4 C
07.06.2006 23:00 11.1 C 70 % 1025.3 hPa 0.0 l/m 0.0 km/h (0 Bft) N 0.00 h 0 W/m 5.8 C 11.1 C
08.06.2006 00:00 9.7 C 78 % 1025.5 hPa 0.0 l/m 0.0 km/h (0 Bft) N 0.00 h 0 W/m 6.2 C 9.7 C
08.06.2006 01:00 8.7 C 83 % 1025.7 hPa 0.0 l/m 0.0 km/h (0 Bft) N 0.00 h 0 W/m 5.9 C 8.7 C
08.06.2006 02:00 8.1 C 85 % 1025.7 hPa 0.0 l/m 0.0 km/h (0 Bft) N 0.00 h 0 W/m 5.7 C 8.1 C
08.06.2006 03:00 7.3 C 90 % 1025.9 hPa 0.0 l/m 0.0 km/h (0 Bft) N 0.00 h 0 W/m 5.8 C 7.3 C
08.06.2006 04:00 7.1 C 91 % 1025.9 hPa 0.0 l/m 0.0 km/h (0 Bft) N 0.00 h 0 W/m 5.8 C 7.1 C
08.06.2006 05:00 6.4 C 93 % 1026.0 hPa 0.0 l/m 0.0 km/h (0 Bft) N 0.07 h 14 W/m 5.3 C 6.4 C
08.06.2006 06:00 6.4 C 91 % 1026.0 hPa 0.0 l/m 0.0 km/h (0 Bft) N 0.20 h 67 W/m 5.1 C 6.4 C
08.06.2006 07:00 7.8 C 86 % 1026.0 hPa 0.0 l/m 0.0 km/h (0 Bft) N 0.90 h 256 W/m 5.6 C 7.8 C
08.06.2006 08:00 10.8 C 74 % 1026.2 hPa 0.0 l/m 0.0 km/h (0 Bft) N 1.00 h 423 W/m 6.2 C 10.8 C
08.06.2006 09:00 14.9 C 56 % 1025.5 hPa 0.0 l/m 4.1 km/h (1 Bft) O-SO 1.00 h 552 W/m 6.1 C 14.9 C
08.06.2006 10:00 17.9 C 48 % 1025.2 hPa 0.0 l/m 12.1 km/h (2 Bft) O-SO 1.00 h 676 W/m 6.9 C 17.9 C
08.06.2006 11:00 19.6 C 42 % 1024.5 hPa 0.0 l/m 16.0 km/h (3 Bft) O-SO 1.00 h 767 W/m 6.4 C 19.6 C
08.06.2006 12:00 20.8 C 36 % 1024.9 hPa 0.0 l/m 10.3 km/h (2 Bft) O-SO 1.00 h 819 W/m 5.1 C 20.8 C
08.06.2006 13:00 21.9 C 31 % 1023.9 hPa 0.0 l/m 14.6 km/h (3 Bft) O-SO 1.00 h 845 W/m 3.7 C 21.9 C
08.06.2006 14:00 22.3 C 30 % 1023.9 hPa 0.0 l/m 8.6 km/h (2 Bft) O-SO 0.93 h 780 W/m 4.0 C 22.3 C
08.06.2006 15:00 22.6 C 27 % 1023.8 hPa 0.0 l/m 1.8 km/h (1 Bft) O-SO 0.90 h 713 W/m 2.1 C 22.6 C
08.06.2006 16:00 23.3 C 26 % 1023.0 hPa 0.0 l/m 6.4 km/h (2 Bft) SO 0.90 h 605 W/m 2.5 C 23.3 C
08.06.2006 17:00 23.3 C 28 % 1022.7 hPa 0.0 l/m 10.6 km/h (2 Bft) O-SO 1.00 h 495 W/m 3.4 C 23.3 C
08.06.2006 18:00 22.1 C 27 % 1022.8 hPa 0.0 l/m 17.3 km/h (3 Bft) O-SO 0.93 h 372 W/m 2.3 C 22.1 C
08.06.2006 19:00 21.0 C 31 % 1023.0 hPa 0.0 l/m 11.1 km/h (2 Bft) O-SO 0.90 h 231 W/m 3.2 C 21.0 C
08.06.2006 20:00 19.5 C 35 % 1023.4 hPa 0.0 l/m 1.3 km/h (1 Bft) O-SO 1.00 h 103 W/m 3.6 C 19.5 C
08.06.2006 21:00 17.0 C 42 % 1024.4 hPa 0.0 l/m 0.0 km/h (0 Bft) N 0.20 h 15 W/m 3.9 C 17.0 C
08.06.2006 22:00 14.9 C 50 % 1024.8 hPa 0.0 l/m 0.0 km/h (0 Bft) N 0.00 h 0 W/m 4.7 C 14.9 C
08.06.2006 23:00 14.1 C 53 % 1024.9 hPa 0.0 l/m 0.0 km/h (0 Bft) N 0.00 h 0 W/m 4.6 C 14.1 C
09.06.2006 00:00 12.0 C 65 % 1025.2 hPa 0.0 l/m 0.0 km/h (0 Bft) O-SO 0.00 h 0 W/m 5.7 C 12.0 C
09.06.2006 01:00 10.5 C 75 % 1025.4 hPa 0.0 l/m 0.4 km/h (0 Bft) O-SO 0.00 h 0 W/m 6.1 C 10.5 C
09.06.2006 02:00 9.3 C 80 % 1025.6 hPa 0.0 l/m 0.0 km/h (0 Bft) N 0.00 h 0 W/m 6.1 C 9.3 C
09.06.2006 03:00 8.7 C 85 % 1025.7 hPa 0.0 l/m 0.1 km/h (0 Bft) N 0.00 h 0 W/m 6.3 C 8.7 C
09.06.2006 04:00 8.1 C 85 % 1025.7 hPa 0.0 l/m 0.0 km/h (0 Bft) N 0.00 h 0 W/m 5.8 C 8.1 C
09.06.2006 05:00 7.6 C 87 % 1025.8 hPa 0.0 l/m 0.0 km/h (0 Bft) N 0.13 h 14 W/m 5.5 C 7.6 C
09.06.2006 06:00 7.5 C 87 % 1025.8 hPa 0.0 l/m 0.0 km/h (0 Bft) N 0.17 h 65 W/m 5.5 C 7.5 C
09.06.2006 07:00 9.1 C 78 % 1025.6 hPa 0.0 l/m 0.0 km/h (0 Bft) N 0.93 h 252 W/m 5.5 C 9.1 C
09.06.2006 08:00 12.2 C 65 % 1025.2 hPa 0.0 l/m 0.1 km/h (0 Bft) N 1.00 h 399 W/m 5.8 C 12.2 C
09.06.2006 09:00 15.9 C 49 % 1024.7 hPa 0.0 l/m 1.8 km/h (1 Bft) O 1.00 h 555 W/m 5.2 C 15.9 C
09.06.2006 10:00 18.9 C 39 % 1024.3 hPa 0.0 l/m 10.1 km/h (2 Bft) O-SO 1.00 h 672 W/m 4.7 C 18.9 C
09.06.2006 11:00 20.7 C 35 % 1024.0 hPa 0.0 l/m 23.5 km/h (4 Bft) O-SO 1.00 h 764 W/m 4.6 C 20.7 C
09.06.2006 12:00 21.7 C 31 % 1022.9 hPa 0.0 l/m 24.2 km/h (4 Bft) O-SO 1.00 h 815 W/m 3.8 C 21.7 C
09.06.2006 13:00 22.9 C 27 % 1022.6 hPa 0.0 l/m 14.8 km/h (3 Bft) O-SO 1.00 h 820 W/m 2.5 C 22.9 C
09.06.2006 14:00 23.4 C 21 % 1021.6 hPa 0.0 l/m 12.4 km/h (3 Bft) O-SO 1.00 h 793 W/m -0.5 C 23.4 C
09.06.2006 15:00 24.0 C 20 % 1021.5 hPa 0.0 l/m 15.1 km/h (3 Bft) O-SO 1.00 h 753 W/m -0.4 C 24.0 C
09.06.2006 16:00 24.4 C 20 % 1020.6 hPa 0.0 l/m 10.2 km/h (2 Bft) O 1.00 h 656 W/m 0.0 C 24.4 C
09.06.2006 17:00 24.4 C 20 % 1020.5 hPa 0.0 l/m 15.8 km/h (3 Bft) O-SO 1.00 h 546 W/m 0.2 C 24.4 C
09.06.2006 18:00 23.7 C 20 % 1020.6 hPa 0.0 l/m 11.0 km/h (2 Bft) O-SO 1.00 h 380 W/m -0.6 C 23.7 C
09.06.2006 19:00 22.8 C 21 % 1020.7 hPa 0.0 l/m 3.4 km/h (1 Bft) O 1.00 h 231 W/m -1.0 C 22.8 C
09.06.2006 20:00 21.6 C 29 % 1020.8 hPa 0.0 l/m 0.1 km/h (0 Bft) N 1.00 h 93 W/m 2.7 C 21.6 C
09.06.2006 21:00 18.8 C 40 % 1021.2 hPa 0.0 l/m 0.2 km/h (0 Bft) N 0.20 h 13 W/m 4.9 C 18.8 C
09.06.2006 22:00 16.8 C 47 % 1021.5 hPa 0.0 l/m 0.1 km/h (0 Bft) N 0.00 h 0 W/m 5.2 C 16.8 C
09.06.2006 23:00 15.5 C 48 % 1022.0 hPa 0.0 l/m 0.2 km/h (0 Bft) O-SO 0.00 h 0 W/m 4.5 C 15.5 C
10.06.2006 00:00 12.9 C 62 % 1022.0 hPa 0.0 l/m 0.0 km/h (0 Bft) N 0.00 h 0 W/m 5.7 C 12.9 C
10.06.2006 01:00 12.3 C 66 % 1022.0 hPa 0.0 l/m 0.0 km/h (0 Bft) N 0.00 h 0 W/m 6.1 C 12.3 C
10.06.2006 02:00 11.5 C 71 % 1022.2 hPa 0.0 l/m 0.3 km/h (0 Bft) O-SO 0.00 h 0 W/m 6.5 C 11.5 C
10.06.2006 03:00 10.3 C 78 % 1022.3 hPa 0.0 l/m 0.0 km/h (0 Bft) N 0.00 h 0 W/m 6.6 C 10.3 C
10.06.2006 04:00 9.3 C 84 % 1022.5 hPa 0.0 l/m 0.6 km/h (0 Bft) O-SO 0.00 h 0 W/m 6.7 C 9.3 C
10.06.2006 05:00 8.9 C 86 % 1022.5 hPa 0.0 l/m 0.6 km/h (0 Bft) O-SO 0.07 h 14 W/m 6.6 C 8.8 C
10.06.2006 06:00 9.0 C 83 % 1023.1 hPa 0.0 l/m 0.0 km/h (0 Bft) N 0.20 h 66 W/m 6.3 C 9.0 C
10.06.2006 07:00 10.4 C 79 % 1023.3 hPa 0.0 l/m 0.0 km/h (0 Bft) N 0.93 h 252 W/m 7.0 C 10.4 C
10.06.2006 08:00 13.0 C 68 % 1023.0 hPa 0.0 l/m 0.0 km/h (0 Bft) N 1.00 h 417 W/m 7.2 C 13.0 C
10.06.2006 09:00 16.2 C 57 % 1022.6 hPa 0.0 l/m 0.6 km/h (0 Bft) W-NW 1.00 h 555 W/m 7.6 C 16.2 C
10.06.2006 10:00 19.8 C 47 % 1022.1 hPa 0.0 l/m 5.0 km/h (1 Bft) O-SO 1.00 h 654 W/m 8.0 C 19.8 C
10.06.2006 11:00 21.4 C 43 % 1021.9 hPa 0.0 l/m 2.4 km/h (1 Bft) O-SO 1.00 h 735 W/m 8.2 C 21.4 C
10.06.2006 12:00 23.2 C 38 % 1021.1 hPa 0.0 l/m 6.9 km/h (2 Bft) SO 1.00 h 775 W/m 8.1 C 23.2 C
10.06.2006 13:00 24.1 C 37 % 1020.5 hPa 0.0 l/m 5.6 km/h (1 Bft) O-SO 1.00 h 818 W/m 8.5 C 24.1 C
10.06.2006 14:00 25.3 C 33 % 1020.4 hPa 0.0 l/m 10.9 km/h (2 Bft) O-SO 1.00 h 787 W/m 7.8 C 25.3 C
10.06.2006 15:00 25.8 C 31 % 1020.3 hPa 0.0 l/m 16.1 km/h (3 Bft) O-SO 1.00 h 711 W/m 7.2 C 25.8 C
10.06.2006 16:00 26.0 C 30 % 1019.4 hPa 0.0 l/m 14.8 km/h (3 Bft) O-SO 1.00 h 624 W/m 7.0 C 26.0 C
10.06.2006 17:00 25.9 C 27 % 1019.3 hPa 0.0 l/m 16.8 km/h (3 Bft) O-SO 1.00 h 439 W/m 5.3 C 25.9 C
10.06.2006 18:00 25.7 C 30 % 1019.3 hPa 0.0 l/m 11.7 km/h (2 Bft) O-SO 1.00 h 337 W/m 6.5 C 25.7 C
10.06.2006 19:00 24.7 C 30 % 1019.4 hPa 0.0 l/m 7.3 km/h (2 Bft) O-SO 1.00 h 215 W/m 5.8 C 24.7 C
10.06.2006 20:00 22.7 C 37 % 1019.7 hPa 0.0 l/m 0.3 km/h (0 Bft) O-SO 0.60 h 81 W/m 7.1 C 22.7 C
10.06.2006 21:00 19.4 C 52 % 1020.1 hPa 0.0 l/m 0.0 km/h (0 Bft) N 0.13 h 15 W/m 9.2 C 19.4 C
10.06.2006 22:00 16.9 C 61 % 1021.4 hPa 0.0 l/m 0.0 km/h (0 Bft) N 0.00 h 0 W/m 9.3 C 16.9 C
10.06.2006 23:00 15.2 C 70 % 1021.7 hPa 0.0 l/m 0.0 km/h (0 Bft) N 0.00 h 0 W/m 9.8 C 15.2 C
11.06.2006 00:00 14.3 C 73 % 1022.5 hPa 0.0 l/m 0.0 km/h (0 Bft) N 0.00 h 0 W/m 9.6 C 14.3 C
11.06.2006 01:00 13.4 C 77 % 1022.9 hPa 0.0 l/m 0.0 km/h (0 Bft) N 0.00 h 0 W/m 9.4 C 13.4 C
11.06.2006 02:00 12.8 C 80 % 1023.0 hPa 0.0 l/m 0.0 km/h (0 Bft) N 0.00 h 0 W/m 9.5 C 12.8 C
11.06.2006 03:00 11.9 C 84 % 1023.1 hPa 0.0 l/m 0.0 km/h (0 Bft) N 0.00 h 0 W/m 9.3 C 11.9 C
11.06.2006 04:00 11.1 C 88 % 1023.3 hPa 0.0 l/m 0.1 km/h (0 Bft) O-SO 0.00 h 0 W/m 9.1 C 11.1 C
11.06.2006 05:00 10.7 C 90 % 1023.3 hPa 0.0 l/m 0.0 km/h (0 Bft) N 0.07 h 13 W/m 9.2 C 10.7 C
11.06.2006 06:00 11.1 C 85 % 1023.6 hPa 0.0 l/m 0.0 km/h (0 Bft) N 0.20 h 66 W/m 8.7 C 11.1 C
11.06.2006 07:00 12.3 C 80 % 1024.1 hPa 0.0 l/m 0.0 km/h (0 Bft) N 0.90 h 247 W/m 9.0 C 12.3 C
11.06.2006 08:00 15.2 C 70 % 1023.7 hPa 0.0 l/m 0.5 km/h (0 Bft) O-SO 1.00 h 415 W/m 9.8 C 15.2 C
11.06.2006 09:00 19.3 C 55 % 1023.2 hPa 0.0 l/m 6.0 km/h (2 Bft) O-SO 1.00 h 553 W/m 9.9 C 19.3 C
11.06.2006 10:00 21.7 C 47 % 1022.9 hPa 0.0 l/m 16.5 km/h (3 Bft) O-SO 1.00 h 672 W/m 9.7 C 21.7 C
11.06.2006 11:00 23.3 C 39 % 1022.7 hPa 0.0 l/m 19.4 km/h (3 Bft) O-SO 1.00 h 764 W/m 8.7 C 23.3 C
11.06.2006 12:00 24.2 C 36 % 1021.8 hPa 0.0 l/m 9.9 km/h (2 Bft) O 1.00 h 814 W/m 8.0 C 24.2 C
11.06.2006 13:00 25.0 C 33 % 1021.4 hPa 0.0 l/m 5.8 km/h (2 Bft) NO 1.00 h 827 W/m 7.6 C 25.0 C
11.06.2006 14:00 26.1 C 21 % 1021.3 hPa 0.0 l/m 10.3 km/h (2 Bft) O 1.00 h 810 W/m 2.1 C 26.1 C
11.06.2006 15:00 26.7 C 20 % 1020.7 hPa 0.0 l/m 8.2 km/h (2 Bft) O-NO 1.00 h 757 W/m 1.9 C 26.7 C
11.06.2006 16:00 26.9 C 20 % 1020.2 hPa 0.0 l/m 9.7 km/h (2 Bft) O-SO 1.00 h 665 W/m 2.0 C 26.9 C
11.06.2006 17:00 26.7 C 20 % 1020.2 hPa 0.0 l/m 9.2 km/h (2 Bft) O 1.00 h 550 W/m 1.9 C 26.7 C
11.06.2006 18:00 25.7 C 20 % 1020.3 hPa 0.0 l/m 6.4 km/h (2 Bft) O 1.00 h 421 W/m 1.1 C 25.7 C
11.06.2006 19:00 24.7 C 23 % 1020.4 hPa 0.0 l/m 6.9 km/h (2 Bft) O-SO 1.00 h 279 W/m 2.2 C 24.7 C
11.06.2006 20:00 23.4 C 27 % 1020.9 hPa 0.0 l/m 4.7 km/h (1 Bft) O-NO 0.87 h 119 W/m 3.4 C 23.4 C
11.06.2006 21:00 21.0 C 36 % 1022.3 hPa 0.0 l/m 0.9 km/h (0 Bft) O-NO 0.20 h 25 W/m 5.2 C 21.0 C
11.06.2006 22:00 19.3 C 41 % 1023.2 hPa 0.0 l/m 1.2 km/h (1 Bft) NO 0.00 h 0 W/m 5.7 C 19.3 C
11.06.2006 23:00 18.3 C 45 % 1023.3 hPa 0.0 l/m 1.7 km/h (1 Bft) O-NO 0.00 h 0 W/m 6.1 C 18.3 C
Min-Datum _ 07.06.06 07.06.06 10.06.06 - 05.06.06 - - - 07.06.06 07.06.06
_ Min-Zeit 05:44 17:50 17:14 - 00:22 - - - 17:50 05:44
Minimum _ 4.5 C 20 % 1019.2 hPa - 0.0 km/h (0 Bft) - - - -3.3 C 4.5 C
Max-Datum _ 11.06.06 06.06.06 07.06.06 06.06.06 09.06.06 - 11.06.06 05.06.06 11.06.06 11.06.06
_ Max-Zeit 16:58 05:48 06:30 01:10 12:10 - 14:34 14:58 08:52 16:58
Maximum _ 27.3 C 100 % 1028.3 hPa 0.3 l/m 45.2 km/h
O-SO (6 Bft)
- 0.07 h 982 W/m 10.6 C 27.3 C
Durchschnitt _ 15.5 C 57 % 1023.3 hPa #0.3 l/m 3.7 km/h (1 Bft) O-SO #80:48 h 400 W/m 5.6 C 15.5 C
© Kaiko 2006